Snoqualmie River: Carnation station

back to: Snoqualmie river
Carnation station Summary - (NOAA Hydrograph: CRNW1)
flood stage: 54.0 ft
Latest reading:
Tue02/20 02:15 pm 47.14 ft 3201 cfs (steady)
Past 24hr max:
Mon02/19 02:30 pm 47.44 ft 3832 cfs
Forecasted crests: (published Tue 02/20/18 08:20 am)
Sun02/25 10:00 am 46.75 ft 2471 cfs
Tue02/27 04:00 am 46.84 ft 2627 cfs

Carnation station Details

Latest Readings

Last 100 Readings:
Tue02/20 02:15 pm 47.14 ft 3201 cfs
Tue02/20 02:00 pm 47.14 ft 3201 cfs
Tue02/20 01:45 pm 47.15 ft 3220 cfs
Tue02/20 01:30 pm 47.15 ft 3220 cfs
Tue02/20 01:15 pm 47.15 ft 3220 cfs
Tue02/20 01:00 pm 47.15 ft 3220 cfs
Tue02/20 12:45 pm 47.15 ft 3220 cfs
Tue02/20 12:30 pm 47.15 ft 3220 cfs
Tue02/20 12:15 pm 47.15 ft 3220 cfs
Tue02/20 12:00 pm 47.16 ft 3241 cfs
Tue02/20 11:45 am 47.16 ft 3241 cfs
Tue02/20 11:30 am 47.17 ft 3261 cfs
Tue02/20 11:15 am 47.17 ft 3261 cfs
Tue02/20 11:00 am 47.17 ft 3261 cfs
Tue02/20 10:45 am 47.17 ft 3261 cfs
Tue02/20 10:30 am 47.18 ft 3282 cfs
Tue02/20 10:15 am 47.18 ft 3282 cfs
Tue02/20 10:00 am 47.18 ft 3282 cfs
Tue02/20 09:45 am 47.19 ft 3303 cfs
Tue02/20 09:30 am 47.19 ft 3303 cfs
Tue02/20 09:15 am 47.19 ft 3303 cfs
Tue02/20 09:00 am 47.2 ft 3324 cfs
Tue02/20 08:45 am 47.2 ft 3324 cfs
Tue02/20 08:30 am 47.2 ft 3324 cfs
Tue02/20 08:15 am 47.2 ft 3324 cfs
Tue02/20 08:00 am 47.2 ft 3324 cfs
Tue02/20 07:45 am 47.21 ft 3344 cfs
Tue02/20 07:30 am 47.22 ft 3365 cfs
Tue02/20 07:15 am 47.22 ft 3365 cfs
Tue02/20 07:00 am 47.22 ft 3365 cfs
Tue02/20 06:45 am 47.23 ft 3386 cfs
Tue02/20 06:30 am 47.23 ft 3386 cfs
Tue02/20 06:15 am 47.23 ft 3386 cfs
Tue02/20 06:00 am 47.24 ft 3406 cfs
Tue02/20 05:45 am 47.24 ft 3406 cfs
Tue02/20 05:30 am 47.24 ft 3406 cfs
Tue02/20 05:15 am 47.24 ft 3406 cfs
Tue02/20 05:00 am 47.25 ft 3427 cfs
Tue02/20 04:45 am 47.25 ft 3427 cfs
Tue02/20 04:30 am 47.25 ft 3427 cfs
Tue02/20 04:15 am 47.25 ft 3427 cfs
Tue02/20 04:00 am 47.25 ft 3427 cfs
Tue02/20 03:45 am 47.26 ft 3448 cfs
Tue02/20 03:30 am 47.26 ft 3448 cfs
Tue02/20 03:15 am 47.26 ft 3448 cfs
Tue02/20 03:00 am 47.27 ft 3469 cfs
Tue02/20 02:45 am 47.27 ft 3469 cfs
Tue02/20 02:30 am 47.27 ft 3469 cfs
Tue02/20 02:15 am 47.28 ft 3489 cfs
Tue02/20 02:00 am 47.28 ft 3489 cfs
Tue02/20 01:45 am 47.29 ft 3510 cfs
Tue02/20 01:30 am 47.29 ft 3510 cfs
Tue02/20 01:15 am 47.29 ft 3510 cfs
Tue02/20 01:00 am 47.29 ft 3510 cfs
Tue02/20 12:45 am 47.29 ft 3510 cfs
Tue02/20 12:30 am 47.3 ft 3531 cfs
Tue02/20 12:15 am 47.31 ft 3553 cfs
Tue02/20 12:00 am 47.31 ft 3553 cfs
Mon02/19 11:45 pm 47.31 ft 3553 cfs
Mon02/19 11:30 pm 47.31 ft 3553 cfs
Mon02/19 11:15 pm 47.31 ft 3553 cfs
Mon02/19 11:00 pm 47.32 ft 3574 cfs
Mon02/19 10:45 pm 47.33 ft 3596 cfs
Mon02/19 10:30 pm 47.33 ft 3596 cfs
Mon02/19 10:15 pm 47.33 ft 3596 cfs
Mon02/19 10:00 pm 47.34 ft 3617 cfs
Mon02/19 09:45 pm 47.34 ft 3617 cfs
Mon02/19 09:30 pm 47.34 ft 3617 cfs
Mon02/19 09:15 pm 47.35 ft 3639 cfs
Mon02/19 09:00 pm 47.35 ft 3639 cfs
Mon02/19 08:45 pm 47.35 ft 3639 cfs
Mon02/19 08:30 pm 47.35 ft 3639 cfs
Mon02/19 08:15 pm 47.36 ft 3660 cfs
Mon02/19 08:00 pm 47.37 ft 3681 cfs
Mon02/19 07:45 pm 47.37 ft 3681 cfs
Mon02/19 07:30 pm 47.37 ft 3681 cfs
Mon02/19 07:15 pm 47.37 ft 3681 cfs
Mon02/19 07:00 pm 47.38 ft 3703 cfs
Mon02/19 06:45 pm 47.38 ft 3703 cfs
Mon02/19 06:30 pm 47.38 ft 3703 cfs
Mon02/19 06:15 pm 47.39 ft 3724 cfs
Mon02/19 06:00 pm 47.39 ft 3724 cfs
Mon02/19 05:45 pm 47.4 ft 3746 cfs
Mon02/19 05:30 pm 47.4 ft 3746 cfs
Mon02/19 05:15 pm 47.41 ft 3767 cfs
Mon02/19 05:00 pm 47.4 ft 3746 cfs
Mon02/19 04:45 pm 47.42 ft 3789 cfs
Mon02/19 04:30 pm 47.42 ft 3789 cfs
Mon02/19 04:15 pm 47.43 ft 3810 cfs
Mon02/19 04:00 pm 47.42 ft 3789 cfs
Mon02/19 03:45 pm 47.43 ft 3810 cfs
Mon02/19 03:30 pm 47.43 ft 3810 cfs
Mon02/19 03:15 pm 47.43 ft 3810 cfs
Mon02/19 03:00 pm 47.43 ft 3810 cfs
Mon02/19 02:45 pm 47.43 ft 3810 cfs
Mon02/19 02:30 pm 47.44 ft 3832 cfs
Mon02/19 02:15 pm 47.43 ft 3810 cfs
Mon02/19 02:00 pm 47.45 ft 3854 cfs
Mon02/19 01:45 pm 47.44 ft 3832 cfs
Mon02/19 01:30 pm 47.45 ft 3854 cfs

Latest Forecasts

Currently Forecasted Readings:
Tue02/20 10:00 am 47.17 ft 3261 cfs
Tue02/20 04:00 pm 47.1 ft 3127 cfs
Tue02/20 10:00 pm 47.05 ft 3018 cfs
Wed02/21 04:00 am 46.99 ft 2917 cfs
Wed02/21 10:00 am 46.95 ft 2831 cfs
Wed02/21 04:00 pm 46.9 ft 2753 cfs
Wed02/21 10:00 pm 46.87 ft 2684 cfs
Thu02/22 04:00 am 46.83 ft 2623 cfs
Thu02/22 10:00 am 46.8 ft 2566 cfs
Thu02/22 04:00 pm 46.77 ft 2514 cfs
Thu02/22 10:00 pm 46.75 ft 2463 cfs
Fri02/23 04:00 am 46.72 ft 2420 cfs
Fri02/23 10:00 am 46.7 ft 2380 cfs
Fri02/23 04:00 pm 46.68 ft 2349 cfs
Fri02/23 10:00 pm 46.67 ft 2327 cfs
Sat02/24 04:00 am 46.66 ft 2317 cfs
Sat02/24 10:00 am 46.67 ft 2324 cfs
Sat02/24 04:00 pm 46.69 ft 2356 cfs
Sat02/24 10:00 pm 46.72 ft 2415 cfs
Sun02/25 04:00 am 46.75 ft 2467 cfs
Sun02/25 10:00 am 46.75 ft 2471 cfs
Sun02/25 04:00 pm 46.75 ft 2463 cfs
Sun02/25 10:00 pm 46.76 ft 2486 cfs
Mon02/26 04:00 am 46.79 ft 2540 cfs
Mon02/26 10:00 am 46.81 ft 2588 cfs
Mon02/26 04:00 pm 46.82 ft 2597 cfs
Mon02/26 10:00 pm 46.82 ft 2603 cfs
Tue02/27 04:00 am 46.84 ft 2627 cfs
Tue02/27 10:00 am 46.83 ft 2623 cfs
Tue02/27 04:00 pm 46.8 ft 2556 cfs
Tue02/27 10:00 pm 46.74 ft 2456 cfs
Wed02/28 04:00 am 46.69 ft 2358 cfs
Wed02/28 10:00 am 46.63 ft 2264 cfs
Wed02/28 04:00 pm 46.59 ft 2182 cfs
Wed02/28 10:00 pm 46.55 ft 2127 cfs
Thu03/01 04:00 am 46.52 ft 2086 cfs
Thu03/01 10:00 am 46.5 ft 2049 cfs
Thu03/01 04:00 pm 46.48 ft 2016 cfs
Thu03/01 10:00 pm 46.47 ft 1994 cfs
Fri03/02 04:00 am 46.45 ft 1973 cfs

Snoqualmie River flood gauge data supplied by the
National Weather Service Northwest River Forecast Center.

Sign up for Floodzilla alerts.